Terminal Aerodrome Forecast
Issued by NWS Charleston, WV

Current Version | Previous Version | Graphics & Text | Print | Product List | Glossary On
Versions: 1 2 3 4 5 6 7 8 9 10 11 12 13 14 15 16 17 18 19 20 21 22 23 24 25 26 27 28 29 30 31 32 33
000
FTUS41 KRLX 190300 AAB
TAFBKW
TAF AMD
KBKW 190358Z 1904/1924 32008KT 3SM -RA BR OVC007
     FM190700 31007KT 4SM BR BKN008
     FM191200 31007KT 5SM BR SCT008
     FM191900 30007KT P6SM FEW100=

USA.gov is the U.S. government's official web portal to all federal, state and local government web resources and services.